createdAt,value
2022-09-06T00:04:18.038Z,9.00
2022-09-06T00:08:52.178Z,8.43
2022-09-06T00:13:26.313Z,8.73
2022-09-06T00:18:03.289Z,8.73
2022-09-06T00:22:37.824Z,7.70
2022-09-06T00:27:11.867Z,9.00
2022-09-06T00:31:45.948Z,8.50
2022-09-06T00:36:22.453Z,8.55
2022-09-06T00:40:56.510Z,8.68
2022-09-06T00:45:31.818Z,9.53
2022-09-06T00:50:06.859Z,8.40
2022-09-06T00:54:43.440Z,8.57
2022-09-06T00:59:17.903Z,8.47
2022-09-06T01:03:51.945Z,8.82
2022-09-06T01:08:40.429Z,8.88
2022-09-06T01:13:27.310Z,8.77
2022-09-06T01:18:11.903Z,9.40
2022-09-06T01:23:08.126Z,8.82
2022-09-06T01:28:22.827Z,8.73
2022-09-06T01:33:01.767Z,8.77
2022-09-06T01:37:36.108Z,9.00
2022-09-06T01:42:14.408Z,9.60
2022-09-06T01:46:57.014Z,9.60
2022-09-06T01:51:38.770Z,9.77
2022-09-06T01:56:23.213Z,9.15
2022-09-06T02:01:04.420Z,8.88
2022-09-06T02:05:47.034Z,8.80
2022-09-06T02:10:28.337Z,8.95
2022-09-06T02:15:06.803Z,8.60
2022-09-06T02:19:47.254Z,9.43
2022-09-06T02:24:27.344Z,9.30
2022-09-06T02:29:01.510Z,9.02
2022-09-06T02:33:36.031Z,9.70
2022-09-06T02:38:10.518Z,9.80
2022-09-06T02:42:45.939Z,9.93
2022-09-06T02:47:19.950Z,9.15
2022-09-06T02:51:53.938Z,8.70
2022-09-06T02:56:27.969Z,9.35
2022-09-06T03:01:03.420Z,9.15
2022-09-06T03:05:37.613Z,8.90
2022-09-06T03:10:11.652Z,8.48
2022-09-06T03:14:45.636Z,9.55
2022-09-06T03:19:21.683Z,9.47
2022-09-06T03:23:56.023Z,9.43
2022-09-06T03:28:30.083Z,8.88
2022-09-06T03:33:04.252Z,9.60
2022-09-06T03:37:39.675Z,9.87
2022-09-06T03:42:13.743Z,9.20
2022-09-06T03:46:47.728Z,9.20
2022-09-06T03:51:21.731Z,9.70
2022-09-06T03:55:58.658Z,9.45
2022-09-06T04:00:33.605Z,9.93
2022-09-06T04:05:08.380Z,9.73
2022-09-06T04:09:42.421Z,9.70
2022-09-06T04:14:17.813Z,10.07
2022-09-06T04:18:52.048Z,9.63
2022-09-06T04:23:28.222Z,8.77
2022-09-06T04:28:02.349Z,8.95
2022-09-06T04:32:37.769Z,8.85
2022-09-06T04:37:11.759Z,9.50
2022-09-06T04:41:45.858Z,8.85
2022-09-06T04:46:24.076Z,9.15
2022-09-06T04:50:59.491Z,9.03
2022-09-06T04:55:34.000Z,8.57
2022-09-06T05:00:09.433Z,9.77
2022-09-06T05:04:43.468Z,9.95
2022-09-06T05:09:18.871Z,8.93
2022-09-06T05:13:52.934Z,8.23
2022-09-06T05:18:27.060Z,6.88
2022-09-06T05:23:01.605Z,8.80
2022-09-06T05:27:37.701Z,8.23
2022-09-06T05:32:11.907Z,8.32
2022-09-06T05:36:46.197Z,7.80
2022-09-06T05:41:20.573Z,8.88
2022-09-06T05:45:56.489Z,8.32
2022-09-06T05:50:30.632Z,8.57
2022-09-06T05:55:05.425Z,8.50
2022-09-06T05:59:39.479Z,8.85
2022-09-06T06:04:15.086Z,8.90
2022-09-06T06:08:49.846Z,9.40
2022-09-06T06:13:23.888Z,9.00
2022-09-06T06:17:57.999Z,11.85
2022-09-06T06:22:33.375Z,9.23
2022-09-06T06:27:07.535Z,8.60
2022-09-06T06:31:42.001Z,9.15
2022-09-06T06:36:24.450Z,9.23
2022-09-06T06:41:03.298Z,9.57
2022-09-06T06:45:40.583Z,9.25
2022-09-06T06:50:14.743Z,8.55
2022-09-06T06:54:49.154Z,9.17
2022-09-06T06:59:24.746Z,8.63
2022-09-06T07:03:59.246Z,7.80
2022-09-06T07:08:33.419Z,9.23
2022-09-06T07:13:07.403Z,8.63
2022-09-06T07:17:44.182Z,8.70
2022-09-06T07:22:18.215Z,8.98
2022-09-06T07:36:41.614Z,6.50
2022-09-06T07:41:15.680Z,8.90
2022-09-06T07:45:49.923Z,8.70
2022-09-06T07:55:19.970Z,8.57
2022-09-06T07:59:54.037Z,8.35
2022-09-06T08:04:28.107Z,8.70
2022-09-06T08:09:02.747Z,7.60
2022-09-06T08:13:38.587Z,7.97
2022-09-06T08:18:13.076Z,7.80
2022-09-06T08:22:47.102Z,7.70
2022-09-06T08:27:21.144Z,7.43
2022-09-06T08:31:56.649Z,7.18
2022-09-06T08:36:31.679Z,7.70
2022-09-06T08:41:11.471Z,7.67
2022-09-06T08:45:50.540Z,7.13
2022-09-06T08:50:30.174Z,7.97
2022-09-06T08:55:19.002Z,8.10
2022-09-06T08:59:58.039Z,7.10
2022-09-06T09:04:33.104Z,8.00
2022-09-06T09:09:11.409Z,7.53
2022-09-06T09:13:55.937Z,7.50
2022-09-06T09:18:35.922Z,7.10
2022-09-06T09:23:10.291Z,7.30
2022-09-06T09:27:46.551Z,7.93
2022-09-06T09:32:30.824Z,7.50
2022-09-06T09:42:12.572Z,7.53
2022-09-06T09:46:47.960Z,7.30
2022-09-06T09:51:27.405Z,7.75
2022-09-06T09:56:01.908Z,7.35
2022-09-06T10:00:39.623Z,8.00
2022-09-06T10:05:21.757Z,6.85
2022-09-06T10:10:00.936Z,6.97
2022-09-06T10:14:42.482Z,7.37
2022-09-06T10:19:25.440Z,7.07
2022-09-06T10:29:05.309Z,6.80
2022-09-06T10:33:52.020Z,6.90
2022-09-06T10:38:38.562Z,6.85
2022-09-06T10:43:18.937Z,6.50
2022-09-06T10:47:59.538Z,6.70
2022-09-06T10:52:36.891Z,6.38
2022-09-06T11:02:29.236Z,6.33
2022-09-06T11:07:11.530Z,7.13
2022-09-06T11:11:49.793Z,7.30
2022-09-06T11:16:30.039Z,7.22
2022-09-06T11:21:27.496Z,7.60
2022-09-06T11:26:30.462Z,7.65
2022-09-06T11:31:05.905Z,7.40
2022-09-06T11:35:42.447Z,8.20
2022-09-06T11:40:26.906Z,8.23
2022-09-06T11:45:21.448Z,7.80
2022-09-06T11:49:55.416Z,7.40
2022-09-06T11:54:39.633Z,8.02
2022-09-06T11:59:30.557Z,8.00
2022-09-06T12:04:08.244Z,8.20
2022-09-06T12:08:43.630Z,7.43
2022-09-06T12:13:51.007Z,8.45
2022-09-06T12:19:00.160Z,7.93
2022-09-06T12:23:44.343Z,8.30
2022-09-06T12:28:25.965Z,7.70
2022-09-06T12:33:01.343Z,6.82
2022-09-06T12:37:39.130Z,7.33
2022-09-06T12:42:15.096Z,7.65
2022-09-06T12:46:51.574Z,6.35
2022-09-06T12:51:26.394Z,5.70
2022-09-06T12:56:09.559Z,5.80
2022-09-06T13:00:45.776Z,5.80
2022-09-06T13:05:19.915Z,6.93
2022-09-06T13:09:57.622Z,5.17
2022-09-06T13:14:35.115Z,6.03
2022-09-06T13:19:13.725Z,5.97
2022-09-06T13:23:50.392Z,4.20
2022-09-06T13:28:30.158Z,3.50
2022-09-06T13:33:07.680Z,4.07
2022-09-06T13:37:41.826Z,5.32
2022-09-06T13:42:27.408Z,4.77
2022-09-06T13:47:02.127Z,6.47
2022-09-06T13:51:39.820Z,5.22
2022-09-06T13:56:13.754Z,5.80
2022-09-06T14:00:47.934Z,6.90
2022-09-06T14:05:21.992Z,6.38
2022-09-06T14:09:57.397Z,5.70
2022-09-06T14:14:31.458Z,8.68
2022-09-06T14:19:06.138Z,8.05
2022-09-06T14:23:40.347Z,8.50
2022-09-06T14:28:16.208Z,8.00
2022-09-06T14:32:50.240Z,7.50
2022-09-06T14:37:24.195Z,8.07
2022-09-06T14:41:58.242Z,7.90
2022-09-06T14:46:33.981Z,8.07
2022-09-06T14:51:13.531Z,8.02
2022-09-06T14:55:47.720Z,8.70
2022-09-06T15:00:22.770Z,7.93
2022-09-06T15:04:58.685Z,8.48
2022-09-06T15:09:32.858Z,9.00
2022-09-06T15:14:09.145Z,7.87
2022-09-06T15:18:43.315Z,8.82
2022-09-06T15:23:25.203Z,5.45
2022-09-06T15:27:59.736Z,8.30
2022-09-06T15:32:33.834Z,7.90
2022-09-06T15:37:07.875Z,4.43
2022-09-06T15:41:43.346Z,5.00
2022-09-06T15:46:21.135Z,4.90
2022-09-06T15:50:55.654Z,5.30
2022-09-06T15:55:49.420Z,5.75
2022-09-06T16:00:24.935Z,5.77
2022-09-06T16:04:59.419Z,6.38
2022-09-06T16:09:33.480Z,5.53
2022-09-06T16:14:10.589Z,6.10
2022-09-06T16:18:47.889Z,5.30
2022-09-06T16:23:22.051Z,5.70
2022-09-06T16:27:56.138Z,6.40
2022-09-06T16:32:30.242Z,4.90
2022-09-06T16:37:07.994Z,5.45
2022-09-06T16:41:45.078Z,5.90
2022-09-06T16:46:19.918Z,6.10
2022-09-06T16:51:15.893Z,6.00
2022-09-06T16:56:13.095Z,5.18
2022-09-06T17:01:08.378Z,6.27
2022-09-06T17:05:22.259Z,5.65
2022-09-06T17:09:37.499Z,6.22
2022-09-06T17:13:53.588Z,5.70
2022-09-06T17:18:08.240Z,6.10
2022-09-06T17:22:22.355Z,5.97
2022-09-06T17:26:38.108Z,5.82
2022-09-06T17:30:53.984Z,6.60
2022-09-06T17:35:08.512Z,6.63
2022-09-06T17:39:22.623Z,6.28
2022-09-06T17:43:37.629Z,6.83
2022-09-06T17:47:53.894Z,6.85
2022-09-06T17:52:07.831Z,7.65
2022-09-06T17:56:22.701Z,7.17
2022-09-06T18:00:39.639Z,7.18
2022-09-06T18:04:54.969Z,7.95
2022-09-06T18:09:10.966Z,7.90
2022-09-06T18:13:24.866Z,7.47
2022-09-06T18:17:38.958Z,7.70
2022-09-06T18:21:55.045Z,7.68
2022-09-06T18:26:09.708Z,8.00
2022-09-06T18:30:23.549Z,8.27
2022-09-06T18:34:37.484Z,8.50
2022-09-06T18:38:52.730Z,8.27
2022-09-06T18:43:06.594Z,8.40
2022-09-06T18:47:20.421Z,8.40
2022-09-06T18:51:35.052Z,7.72
2022-09-06T18:55:52.679Z,7.77
2022-09-06T19:00:08.062Z,7.75
2022-09-06T19:04:22.458Z,7.40
2022-09-06T19:08:36.509Z,6.50
2022-09-06T19:12:53.329Z,5.50
2022-09-06T19:17:07.494Z,5.97
2022-09-06T19:21:22.450Z,5.63
2022-09-06T19:25:36.327Z,4.28
2022-09-06T19:29:51.537Z,4.85
2022-09-06T19:34:06.304Z,4.72
2022-09-06T19:38:21.753Z,4.77
2022-09-06T19:42:36.067Z,4.68
2022-09-06T19:46:51.557Z,4.88
2022-09-06T19:51:08.087Z,5.57
2022-09-06T19:55:21.867Z,5.70
2022-09-06T19:59:36.591Z,6.38
2022-09-06T20:03:51.973Z,6.93
2022-09-06T20:08:06.340Z,7.30
2022-09-06T20:12:20.658Z,8.02
2022-09-06T20:16:37.101Z,8.77
2022-09-06T20:20:59.338Z,9.27
2022-09-06T20:25:13.872Z,8.90
2022-09-06T20:29:27.686Z,10.43
2022-09-06T20:33:43.745Z,11.40
2022-09-06T20:38:02.296Z,11.80
2022-09-06T20:42:16.316Z,12.73
2022-09-06T20:46:32.161Z,13.57
2022-09-06T20:50:46.148Z,14.25
2022-09-06T20:55:01.365Z,14.05
2022-09-06T20:59:15.453Z,12.93
2022-09-06T21:03:29.280Z,13.43
2022-09-06T21:07:43.096Z,14.27
2022-09-06T21:11:59.104Z,13.82
2022-09-06T21:16:13.134Z,14.30
2022-09-06T21:20:26.955Z,15.70
2022-09-06T21:24:40.974Z,15.77
2022-09-06T21:28:56.365Z,16.73
2022-09-06T21:33:10.176Z,17.45
2022-09-06T21:37:24.031Z,17.98
2022-09-06T21:41:38.877Z,19.30
2022-09-06T21:45:54.135Z,19.30
2022-09-06T21:50:08.960Z,20.00
2022-09-06T21:54:23.744Z,19.95
2022-09-06T21:58:37.701Z,21.60
2022-09-06T22:02:52.945Z,22.00
2022-09-06T22:07:06.874Z,23.02
2022-09-06T22:11:22.676Z,23.10
2022-09-06T22:15:38.649Z,24.17
2022-09-06T22:19:54.013Z,25.50
2022-09-06T22:24:09.661Z,26.98
2022-09-06T22:28:23.550Z,25.67
2022-09-06T22:32:37.878Z,26.00
2022-09-06T22:36:53.068Z,27.90
2022-09-06T22:41:07.167Z,28.83
2022-09-06T22:45:21.117Z,28.90
2022-09-06T22:49:35.304Z,31.30
2022-09-06T22:53:50.583Z,29.77
2022-09-06T22:58:05.376Z,28.25
2022-09-06T23:02:19.212Z,29.90
2022-09-06T23:06:33.093Z,30.70
2022-09-06T23:10:48.420Z,29.30
2022-09-06T23:15:02.257Z,30.92
2022-09-06T23:19:16.271Z,32.10
2022-09-06T23:23:31.655Z,31.77
2022-09-06T23:27:47.529Z,31.90
2022-09-06T23:32:01.453Z,29.35
2022-09-06T23:36:15.778Z,29.43
2022-09-06T23:40:29.587Z,31.30
2022-09-06T23:44:44.811Z,32.10
2022-09-06T23:48:58.815Z,32.38
2022-09-06T23:53:15.162Z,33.23
2022-09-06T23:57:28.938Z,32.80
